Terminal Aerodrome Forecast
Issued by NWS Cleveland, OH

Home | Current Version | Previous Version | Graphics & Text | Print | Product List | Glossary Off
Versions: 1 2 3 4 5 6 7 8 9 10 11 12 13 14 15 16 17 18 19

000
FTUS41 KCLE 122340
TAFMFD
TAF
KMFD 122340Z 1300/1324 28015G25KT 1/2SM SN OVC008
     FM130030 29012G20KT 2SM -SN BLSN BKN015 OVC025
     FM130100 29012G20KT 5SM -SHSN OVC025
      TEMPO 1303/1307 2SM -SHSN BLSN
     FM130700 30012G22KT P6SM VCSH BKN035
     FM131200 30010KT P6SM SCT035
     FM131500 30010G18KT P6SM BKN025=

USA.gov is the U.S. government's official web portal to all federal, state and local government web resources and services.